sensor_id;sensor_type;location;lat;lon;timestamp;pressure;altitude;pressure_sealevel;temperature;humidity
6829;BME280;17930;48.592;8.868;2023-01-25T00:02:02;98279.59;;;2.04;100.00
6829;BME280;17930;48.592;8.868;2023-01-25T00:04:29;98280.34;;;1.99;100.00
6829;BME280;17930;48.592;8.868;2023-01-25T00:06:56;98279.97;;;2.02;100.00
6829;BME280;17930;48.592;8.868;2023-01-25T00:09:24;98271.66;;;2.00;100.00
6829;BME280;17930;48.592;8.868;2023-01-25T00:11:51;98278.38;;;2.01;100.00
6829;BME280;17930;48.592;8.868;2023-01-25T00:14:21;98271.38;;;1.95;100.00
6829;BME280;17930;48.592;8.868;2023-01-25T00:16:48;98275.19;;;1.99;100.00
6829;BME280;17930;48.592;8.868;2023-01-25T00:19:15;98273.53;;;1.91;100.00
6829;BME280;17930;48.592;8.868;2023-01-25T00:21:42;98268.44;;;1.98;100.00
6829;BME280;17930;48.592;8.868;2023-01-25T00:24:09;98270.41;;;1.96;100.00
6829;BME280;17930;48.592;8.868;2023-01-25T00:26:36;98267.25;;;1.94;100.00
6829;BME280;17930;48.592;8.868;2023-01-25T00:29:04;98260.50;;;1.93;100.00
6829;BME280;17930;48.592;8.868;2023-01-25T00:31:40;98252.22;;;1.97;100.00
6829;BME280;17930;48.592;8.868;2023-01-25T00:37:13;98252.03;;;1.99;100.00
6829;BME280;17930;48.592;8.868;2023-01-25T00:39:43;98243.38;;;2.00;100.00
6829;BME280;17930;48.592;8.868;2023-01-25T00:42:11;98253.84;;;1.98;100.00
6829;BME280;17930;48.592;8.868;2023-01-25T00:44:38;98250.25;;;1.99;100.00
6829;BME280;17930;48.592;8.868;2023-01-25T00:47:06;98252.66;;;2.01;100.00
6829;BME280;17930;48.592;8.868;2023-01-25T00:49:33;98242.31;;;1.94;100.00
6829;BME280;17930;48.592;8.868;2023-01-25T00:52:00;98258.88;;;1.92;100.00
6829;BME280;17930;48.592;8.868;2023-01-25T00:54:26;98259.75;;;1.99;100.00
6829;BME280;17930;48.592;8.868;2023-01-25T00:56:53;98261.25;;;2.07;100.00
6829;BME280;17930;48.592;8.868;2023-01-25T00:59:21;98252.91;;;2.05;100.00
6829;BME280;17930;48.592;8.868;2023-01-25T01:01:48;98235.69;;;2.06;100.00
6829;BME280;17930;48.592;8.868;2023-01-25T01:04:16;98243.97;;;2.02;100.00
6829;BME280;17930;48.592;8.868;2023-01-25T01:06:43;98252.31;;;2.03;100.00
6829;BME280;17930;48.592;8.868;2023-01-25T01:09:11;98243.59;;;2.04;100.00
6829;BME280;17930;48.592;8.868;2023-01-25T01:11:38;98242.38;;;2.01;100.00
6829;BME280;17930;48.592;8.868;2023-01-25T01:14:05;98227.66;;;1.95;100.00
6829;BME280;17930;48.592;8.868;2023-01-25T01:16:32;98235.28;;;2.03;100.00
6829;BME280;17930;48.592;8.868;2023-01-25T01:18:58;98234.81;;;1.99;100.00
6829;BME280;17930;48.592;8.868;2023-01-25T01:21:26;98236.88;;;2.03;100.00
6829;BME280;17930;48.592;8.868;2023-01-25T01:23:53;98244.78;;;2.02;100.00
6829;BME280;17930;48.592;8.868;2023-01-25T01:26:20;98238.97;;;2.14;100.00
6829;BME280;17930;48.592;8.868;2023-01-25T01:28:47;98237.38;;;2.13;100.00
6829;BME280;17930;48.592;8.868;2023-01-25T01:31:16;98229.34;;;2.02;100.00
6829;BME280;17930;48.592;8.868;2023-01-25T01:33:43;98238.09;;;2.07;100.00
6829;BME280;17930;48.592;8.868;2023-01-25T01:36:13;98237.72;;;2.10;100.00
6829;BME280;17930;48.592;8.868;2023-01-25T01:38:42;98239.56;;;1.96;100.00
6829;BME280;17930;48.592;8.868;2023-01-25T01:41:10;98239.56;;;1.96;100.00
6829;BME280;17930;48.592;8.868;2023-01-25T01:43:36;98232.06;;;2.01;100.00
6829;BME280;17930;48.592;8.868;2023-01-25T01:46:04;98238.22;;;2.00;100.00
6829;BME280;17930;48.592;8.868;2023-01-25T01:48:33;98242.38;;;2.01;100.00
6829;BME280;17930;48.592;8.868;2023-01-25T01:51:07;98234.53;;;2.08;100.00
6829;BME280;17930;48.592;8.868;2023-01-25T01:53:37;98239.63;;;2.02;100.00
6829;BME280;17930;48.592;8.868;2023-01-25T01:56:09;98226.91;;;2.15;100.00
6829;BME280;17930;48.592;8.868;2023-01-25T01:58:40;98224.06;;;2.10;100.00
6829;BME280;17930;48.592;8.868;2023-01-25T02:01:07;98230.63;;;2.12;100.00
6829;BME280;17930;48.592;8.868;2023-01-25T02:03:34;98232.44;;;1.98;100.00
6829;BME280;17930;48.592;8.868;2023-01-25T02:06:03;98225.00;;;2.03;100.00
6829;BME280;17930;48.592;8.868;2023-01-25T02:08:34;98222.75;;;2.14;100.00
6829;BME280;17930;48.592;8.868;2023-01-25T02:11:03;98235.28;;;2.03;100.00
6829;BME280;17930;48.592;8.868;2023-01-25T02:13:31;98236.81;;;1.97;100.00
6829;BME280;17930;48.592;8.868;2023-01-25T02:15:58;98235.28;;;2.03;100.00
6829;BME280;17930;48.592;8.868;2023-01-25T02:18:25;98237.22;;;2.01;100.00
6829;BME280;17930;48.592;8.868;2023-01-25T02:20:53;98233.06;;;2.00;100.00
6829;BME280;17930;48.592;8.868;2023-01-25T02:23:24;98234.81;;;1.99;100.00
6829;BME280;17930;48.592;8.868;2023-01-25T02:25:56;98225.72;;;1.97;100.00
6829;BME280;17930;48.592;8.868;2023-01-25T02:28:28;98231.09;;;2.02;100.00
6829;BME280;17930;48.592;8.868;2023-01-25T02:30:56;98228.75;;;1.86;100.00
6829;BME280;17930;48.592;8.868;2023-01-25T02:33:23;98222.16;;;1.98;100.00
6829;BME280;17930;48.592;8.868;2023-01-25T02:35:54;98220.63;;;2.03;100.00
6829;BME280;17930;48.592;8.868;2023-01-25T02:38:21;98219.06;;;2.02;100.00
6829;BME280;17930;48.592;8.868;2023-01-25T02:40:52;98222.66;;;2.07;100.00
6829;BME280;17930;48.592;8.868;2023-01-25T02:43:22;98216.91;;;2.05;100.00
6829;BME280;17930;48.592;8.868;2023-01-25T02:45:51;98212.44;;;2.14;100.00
6829;BME280;17930;48.592;8.868;2023-01-25T02:48:20;98211.88;;;2.18;100.00
6829;BME280;17930;48.592;8.868;2023-01-25T02:50:46;98210.06;;;2.12;100.00
6829;BME280;17930;48.592;8.868;2023-01-25T02:53:13;98205.28;;;2.09;100.00
6829;BME280;17930;48.592;8.868;2023-01-25T02:55:40;98211.47;;;2.15;100.00
6829;BME280;17930;48.592;8.868;2023-01-25T02:58:06;98206.03;;;2.03;100.00
6829;BME280;17930;48.592;8.868;2023-01-25T03:00:34;98207.22;;;2.07;100.00
6829;BME280;17930;48.592;8.868;2023-01-25T03:03:01;98199.13;;;2.10;100.00
6829;BME280;17930;48.592;8.868;2023-01-25T03:05:27;98201.00;;;2.16;100.00
6829;BME280;17930;48.592;8.868;2023-01-25T03:07:54;98213.59;;;2.11;100.00
6829;BME280;17930;48.592;8.868;2023-01-25T03:10:21;98210.06;;;2.12;100.00
6829;BME280;17930;48.592;8.868;2023-01-25T03:12:47;98200.75;;;2.11;100.00
6829;BME280;17930;48.592;8.868;2023-01-25T03:15:14;98197.31;;;2.04;100.00
6829;BME280;17930;48.592;8.868;2023-01-25T03:17:42;98201.50;;;2.26;100.00
6829;BME280;17930;48.592;8.868;2023-01-25T03:20:10;98194.63;;;2.12;100.00
6829;BME280;17930;48.592;8.868;2023-01-25T03:22:37;98196.63;;;2.17;100.00
6829;BME280;17930;48.592;8.868;2023-01-25T03:25:04;98188.00;;;2.24;100.00
6829;BME280;17930;48.592;8.868;2023-01-25T03:27:31;98187.03;;;2.25;100.00
6829;BME280;17930;48.592;8.868;2023-01-25T03:29:57;98183.09;;;2.08;100.00
6829;BME280;17930;48.592;8.868;2023-01-25T03:32:24;98179.84;;;2.00;100.00
6829;BME280;17930;48.592;8.868;2023-01-25T03:34:52;98170.59;;;2.05;100.00
6829;BME280;17930;48.592;8.868;2023-01-25T03:37:18;98164.25;;;2.22;100.00
6829;BME280;17930;48.592;8.868;2023-01-25T03:39:45;98161.66;;;2.22;100.00
6829;BME280;17930;48.592;8.868;2023-01-25T03:42:11;98163.38;;;2.15;100.00
6829;BME280;17930;48.592;8.868;2023-01-25T03:44:38;98161.56;;;2.09;100.00
6829;BME280;17930;48.592;8.868;2023-01-25T03:47:05;98161.06;;;2.20;100.00
6829;BME280;17930;48.592;8.868;2023-01-25T03:49:31;98160.81;;;2.15;100.00
6829;BME280;17930;48.592;8.868;2023-01-25T03:51:59;98155.94;;;2.20;100.00
6829;BME280;17930;48.592;8.868;2023-01-25T03:54:26;98157.88;;;2.18;100.00
6829;BME280;17930;48.592;8.868;2023-01-25T03:56:53;98158.16;;;2.09;100.00
6829;BME280;17930;48.592;8.868;2023-01-25T03:59:19;98167.25;;;2.05;100.00
6829;BME280;17930;48.592;8.868;2023-01-25T04:01:46;98162.22;;;2.18;100.00
6829;BME280;17930;48.592;8.868;2023-01-25T04:04:13;98159.03;;;2.16;100.00
6829;BME280;17930;48.592;8.868;2023-01-25T04:06:39;98157.00;;;2.11;100.00
6829;BME280;17930;48.592;8.868;2023-01-25T04:09:08;98157.31;;;2.23;100.00
6829;BME280;17930;48.592;8.868;2023-01-25T04:11:34;98161.19;;;2.33;100.00
6829;BME280;17930;48.592;8.868;2023-01-25T04:14:01;98159.09;;;2.22;100.00
6829;BME280;17930;48.592;8.868;2023-01-25T04:16:27;98156.22;;;2.11;100.00
6829;BME280;17930;48.592;8.868;2023-01-25T04:18:55;98156.06;;;2.19;100.00
6829;BME280;17930;48.592;8.868;2023-01-25T04:21:22;98157.88;;;2.18;100.00
6829;BME280;17930;48.592;8.868;2023-01-25T04:23:48;98155.28;;;2.18;100.00
6829;BME280;17930;48.592;8.868;2023-01-25T04:26:16;98158.59;;;2.12;100.00
6829;BME280;17930;48.592;8.868;2023-01-25T04:28:43;98159.09;;;2.22;100.00
6829;BME280;17930;48.592;8.868;2023-01-25T04:31:10;98154.56;;;2.24;100.00
6829;BME280;17930;48.592;8.868;2023-01-25T04:33:36;98157.44;;;2.15;100.00
6829;BME280;17930;48.592;8.868;2023-01-25T04:36:04;98149.06;;;2.06;100.00
6829;BME280;17930;48.592;8.868;2023-01-25T04:38:31;98150.53;;;2.15;100.00
6829;BME280;17930;48.592;8.868;2023-01-25T04:40:57;98143.00;;;2.41;100.00
6829;BME280;17930;48.592;8.868;2023-01-25T04:43:25;98146.72;;;2.32;100.00
6829;BME280;17930;48.592;8.868;2023-01-25T04:45:52;98149.97;;;2.20;100.00
6829;BME280;17930;48.592;8.868;2023-01-25T04:48:19;98143.75;;;2.35;100.00
6829;BME280;17930;48.592;8.868;2023-01-25T04:50:45;98148.81;;;2.22;100.00
6829;BME280;17930;48.592;8.868;2023-01-25T04:53:12;98146.03;;;2.24;100.00
6829;BME280;17930;48.592;8.868;2023-01-25T04:55:39;98144.78;;;2.13;100.00
6829;BME280;17930;48.592;8.868;2023-01-25T04:58:06;98145.56;;;2.35;100.00
6829;BME280;17930;48.592;8.868;2023-01-25T05:00:34;98135.19;;;2.28;100.00
6829;BME280;17930;48.592;8.868;2023-01-25T05:03:01;98146.47;;;2.27;100.00
6829;BME280;17930;48.592;8.868;2023-01-25T05:05:28;98141.25;;;2.42;100.00
6829;BME280;17930;48.592;8.868;2023-01-25T05:07:54;98142.78;;;2.36;100.00
6829;BME280;17930;48.592;8.868;2023-01-25T05:10:21;98134.59;;;2.26;100.00
6829;BME280;17930;48.592;8.868;2023-01-25T05:12:48;98136.16;;;2.27;100.00
6829;BME280;17930;48.592;8.868;2023-01-25T05:15:15;98139.84;;;2.39;100.00
6829;BME280;17930;48.592;8.868;2023-01-25T05:17:43;98131.16;;;2.40;100.00
6829;BME280;17930;48.592;8.868;2023-01-25T05:20:10;98130.34;;;2.40;100.00
6829;BME280;17930;48.592;8.868;2023-01-25T05:22:37;98126.34;;;2.37;100.00
6829;BME280;17930;48.592;8.868;2023-01-25T05:25:04;98116.03;;;2.31;100.00
6829;BME280;17930;48.592;8.868;2023-01-25T05:27:51;98133.53;;;2.42;100.00
6829;BME280;17930;48.592;8.868;2023-01-25T05:30:17;98129.28;;;2.34;100.00
6829;BME280;17930;48.592;8.868;2023-01-25T05:32:47;98135.38;;;2.27;100.00
6829;BME280;17930;48.592;8.868;2023-01-25T05:35:17;98136.63;;;2.37;100.00
6829;BME280;17930;48.592;8.868;2023-01-25T05:38:00;98134.06;;;2.37;100.00
6829;BME280;17930;48.592;8.868;2023-01-25T05:41:01;98126.00;;;2.40;100.00
6829;BME280;17930;48.592;8.868;2023-01-25T05:44:04;98134.16;;;2.23;100.00
6829;BME280;17930;48.592;8.868;2023-01-25T05:47:04;98136.91;;;2.21;100.00
6829;BME280;17930;48.592;8.868;2023-01-25T05:49:32;98131.84;;;2.28;100.00
6829;BME280;17930;48.592;8.868;2023-01-25T05:51:59;98134.50;;;2.41;100.00
6829;BME280;17930;48.592;8.868;2023-01-25T05:54:25;98137.75;;;2.28;100.00
6829;BME280;17930;48.592;8.868;2023-01-25T05:57:07;98130.31;;;2.33;100.00
6829;BME280;17930;48.592;8.868;2023-01-25T06:00:03;98126.34;;;2.37;100.00
6829;BME280;17930;48.592;8.868;2023-01-25T06:02:31;98120.22;;;2.38;100.00
6829;BME280;17930;48.592;8.868;2023-01-25T06:04:59;98113.84;;;2.34;100.00
6829;BME280;17930;48.592;8.868;2023-01-25T06:07:25;98120.88;;;2.19;100.00
6829;BME280;17930;48.592;8.868;2023-01-25T06:09:52;98130.13;;;2.14;100.00
6829;BME280;17930;48.592;8.868;2023-01-25T06:12:39;98122.50;;;2.27;100.00
6829;BME280;17930;48.592;8.868;2023-01-25T06:15:34;98130.22;;;2.27;100.00
6829;BME280;17930;48.592;8.868;2023-01-25T06:18:31;98117.97;;;2.29;100.00
6829;BME280;17930;48.592;8.868;2023-01-25T08:33:03;98090.44;;;2.50;100.00
6829;BME280;17930;48.592;8.868;2023-01-25T08:35:59;98084.81;;;2.40;100.00
6829;BME280;17930;48.592;8.868;2023-01-25T08:38:56;98086.19;;;2.36;100.00
6829;BME280;17930;48.592;8.868;2023-01-25T08:41:52;98084.28;;;2.24;100.00
6829;BME280;17930;48.592;8.868;2023-01-25T08:44:47;98078.47;;;2.43;100.00
6829;BME280;17930;48.592;8.868;2023-01-25T08:47:30;98075.00;;;2.50;100.00
6829;BME280;17930;48.592;8.868;2023-01-25T08:53:41;98069.88;;;2.56;100.00
6829;BME280;17930;48.592;8.868;2023-01-25T08:56:10;98070.94;;;2.41;100.00
6829;BME280;17930;48.592;8.868;2023-01-25T08:58:39;98056.28;;;2.35;100.00
6829;BME280;17930;48.592;8.868;2023-01-25T09:01:08;98055.94;;;2.45;100.00
6829;BME280;17930;48.592;8.868;2023-01-25T09:03:37;98060.53;;;2.49;100.00
6829;BME280;17930;48.592;8.868;2023-01-25T09:06:05;98062.19;;;2.36;100.00
6829;BME280;17930;48.592;8.868;2023-01-25T09:08:33;98057.91;;;2.43;100.00
6829;BME280;17930;48.592;8.868;2023-01-25T09:11:02;98052.88;;;2.62;100.00
6829;BME280;17930;48.592;8.868;2023-01-25T09:13:29;98046.88;;;2.55;100.00
6829;BME280;17930;48.592;8.868;2023-01-25T09:15:59;98044.38;;;2.34;100.00
6829;BME280;17930;48.592;8.868;2023-01-25T09:18:26;98041.97;;;2.26;100.00
6829;BME280;17930;48.592;8.868;2023-01-25T09:20:53;98048.34;;;2.37;100.00
6829;BME280;17930;48.592;8.868;2023-01-25T09:23:22;98055.03;;;2.31;100.00
6829;BME280;17930;48.592;8.868;2023-01-25T09:26:24;98046.28;;;2.53;100.00
6829;BME280;17930;48.592;8.868;2023-01-25T09:29:19;98046.38;;;2.39;100.00
6829;BME280;17930;48.592;8.868;2023-01-25T09:31:46;98040.50;;;2.45;100.00
6829;BME280;17930;48.592;8.868;2023-01-25T09:34:15;98041.69;;;2.49;100.00
6829;BME280;17930;48.592;8.868;2023-01-25T09:36:42;98048.09;;;2.59;100.00
6829;BME280;17930;48.592;8.868;2023-01-25T09:39:10;98040.97;;;2.61;100.00
6829;BME280;17930;48.592;8.868;2023-01-25T09:42:06;98037.50;;;2.75;100.00
6829;BME280;17930;48.592;8.868;2023-01-25T09:44:48;98047.72;;;2.62;100.00
6829;BME280;17930;48.592;8.868;2023-01-25T09:47:26;98042.25;;;2.71;100.00
6829;BME280;17930;48.592;8.868;2023-01-25T09:50:16;98041.16;;;2.53;100.00
6829;BME280;17930;48.592;8.868;2023-01-25T09:53:19;98048.78;;;2.40;100.00
6829;BME280;17930;48.592;8.868;2023-01-25T09:55:52;98056.34;;;2.48;100.00
6829;BME280;17930;48.592;8.868;2023-01-25T09:58:44;98045.19;;;2.35;100.00
6829;BME280;17930;48.592;8.868;2023-01-25T10:01:24;98047.13;;;2.33;100.00
6829;BME280;17930;48.592;8.868;2023-01-25T10:03:56;98041.28;;;2.45;100.00
6829;BME280;17930;48.592;8.868;2023-01-25T10:06:58;98039.09;;;2.42;100.00
6829;BME280;17930;48.592;8.868;2023-01-25T10:09:35;98035.31;;;2.38;100.00
6829;BME280;17930;48.592;8.868;2023-01-25T10:12:14;98044.84;;;2.44;100.00
6829;BME280;17930;48.592;8.868;2023-01-25T10:14:45;98039.47;;;2.39;100.00
6829;BME280;17930;48.592;8.868;2023-01-25T10:17:16;98040.31;;;2.46;100.00
6829;BME280;17930;48.592;8.868;2023-01-25T10:20:02;98043.34;;;2.62;100.00
6829;BME280;17930;48.592;8.868;2023-01-25T10:22:37;98044.31;;;2.55;100.00
6829;BME280;17930;48.592;8.868;2023-01-25T10:25:35;98032.69;;;2.65;100.00
6829;BME280;17930;48.592;8.868;2023-01-25T10:28:23;98033.25;;;2.61;100.00
6829;BME280;17930;48.592;8.868;2023-01-25T10:30:57;98028.69;;;2.56;100.00
6829;BME280;17930;48.592;8.868;2023-01-25T10:33:27;98029.84;;;2.54;100.00
6829;BME280;17930;48.592;8.868;2023-01-25T10:35:58;98021.97;;;2.62;100.00
6829;BME280;17930;48.592;8.868;2023-01-25T10:38:36;98022.75;;;2.56;100.00
6829;BME280;17930;48.592;8.868;2023-01-25T10:41:14;98009.63;;;2.51;100.00
6829;BME280;17930;48.592;8.868;2023-01-25T10:43:43;98018.44;;;2.63;100.00
6829;BME280;17930;48.592;8.868;2023-01-25T10:46:20;98004.97;;;2.67;100.00
6829;BME280;17930;48.592;8.868;2023-01-25T10:48:47;97997.69;;;2.77;100.00
6829;BME280;17930;48.592;8.868;2023-01-25T10:51:35;97995.91;;;2.78;100.00
6829;BME280;17930;48.592;8.868;2023-01-25T10:54:04;97985.00;;;2.76;100.00
6829;BME280;17930;48.592;8.868;2023-01-25T10:56:33;97983.81;;;2.72;100.00
6829;BME280;17930;48.592;8.868;2023-01-25T10:59:14;97980.06;;;2.74;100.00
6829;BME280;17930;48.592;8.868;2023-01-25T11:01:44;97976.50;;;2.82;100.00
6829;BME280;17930;48.592;8.868;2023-01-25T11:04:29;97980.88;;;2.88;100.00
6829;BME280;17930;48.592;8.868;2023-01-25T11:06:57;97975.56;;;2.96;100.00
6829;BME280;17930;48.592;8.868;2023-01-25T11:09:35;97968.97;;;2.87;100.00
6829;BME280;17930;48.592;8.868;2023-01-25T11:12:03;97973.19;;;3.01;100.00
6829;BME280;17930;48.592;8.868;2023-01-25T11:14:32;97967.06;;;3.02;100.00
6829;BME280;17930;48.592;8.868;2023-01-25T11:17:01;97965.81;;;2.85;100.00
6829;BME280;17930;48.592;8.868;2023-01-25T11:19:33;97963.03;;;2.80;100.00
6829;BME280;17930;48.592;8.868;2023-01-25T11:22:02;97958.72;;;2.93;100.00
6829;BME280;17930;48.592;8.868;2023-01-25T11:24:30;97956.38;;;3.04;100.00
6829;BME280;17930;48.592;8.868;2023-01-25T11:27:11;97965.47;;;3.01;100.00
6829;BME280;17930;48.592;8.868;2023-01-25T11:29:39;97970.97;;;2.85;100.00
6829;BME280;17930;48.592;8.868;2023-01-25T11:32:15;97961.53;;;3.04;100.00
6829;BME280;17930;48.592;8.868;2023-01-25T11:34:44;97963.28;;;2.91;100.00
6829;BME280;17930;48.592;8.868;2023-01-25T11:37:38;97972.56;;;2.86;100.00
6829;BME280;17930;48.592;8.868;2023-01-25T11:40:14;97956.69;;;2.82;100.00
6829;BME280;17930;48.592;8.868;2023-01-25T11:42:57;97957.47;;;2.70;100.00
6829;BME280;17930;48.592;8.868;2023-01-25T11:45:42;97952.13;;;2.71;100.00
6829;BME280;17930;48.592;8.868;2023-01-25T11:48:28;97949.13;;;2.68;100.00
6829;BME280;17930;48.592;8.868;2023-01-25T11:51:04;97946.38;;;2.76;100.00
6829;BME280;17930;48.592;8.868;2023-01-25T11:53:44;97943.16;;;2.61;100.00
6829;BME280;17930;48.592;8.868;2023-01-25T11:56:17;97934.59;;;2.54;100.00
6829;BME280;17930;48.592;8.868;2023-01-25T11:58:57;97942.13;;;2.55;100.00
6829;BME280;17930;48.592;8.868;2023-01-25T12:01:36;97936.34;;;2.47;100.00
6829;BME280;17930;48.592;8.868;2023-01-25T12:04:20;97926.69;;;2.49;100.00
6829;BME280;17930;48.592;8.868;2023-01-25T12:06:58;97919.34;;;2.46;100.00
6829;BME280;17930;48.592;8.868;2023-01-25T12:12:34;97895.66;;;2.76;100.00
6829;BME280;17930;48.592;8.868;2023-01-25T12:18:27;97889.25;;;2.40;100.00
6829;BME280;17930;48.592;8.868;2023-01-25T12:21:09;97894.38;;;2.40;100.00
6829;BME280;17930;48.592;8.868;2023-01-25T12:23:52;97876.69;;;2.24;100.00
6829;BME280;17930;48.592;8.868;2023-01-25T12:27:18;97874.94;;;2.31;100.00
6829;BME280;17930;48.592;8.868;2023-01-25T12:29:51;97870.22;;;2.41;100.00
6829;BME280;17930;48.592;8.868;2023-01-25T12:32:23;97854.81;;;2.54;100.00
6829;BME280;17930;48.592;8.868;2023-01-25T12:35:03;97855.56;;;2.35;100.00
6829;BME280;17930;48.592;8.868;2023-01-25T12:37:39;97857.50;;;2.20;100.00
6829;BME280;17930;48.592;8.868;2023-01-25T12:40:13;97849.22;;;2.38;100.00
6829;BME280;17930;48.592;8.868;2023-01-25T12:42:46;97844.66;;;2.33;100.00
6829;BME280;17930;48.592;8.868;2023-01-25T12:45:19;97831.63;;;2.54;100.00
6829;BME280;17930;48.592;8.868;2023-01-25T12:47:52;97831.22;;;2.44;100.00
6829;BME280;17930;48.592;8.868;2023-01-25T12:50:24;97826.06;;;2.38;100.00
6829;BME280;17930;48.592;8.868;2023-01-25T12:53:00;97827.22;;;2.22;100.00
6829;BME280;17930;48.592;8.868;2023-01-25T12:55:28;97825.06;;;2.39;100.00
6829;BME280;17930;48.592;8.868;2023-01-25T12:58:17;97819.91;;;2.32;100.00
6829;BME280;17930;48.592;8.868;2023-01-25T13:00:52;97819.38;;;2.43;100.00
6829;BME280;17930;48.592;8.868;2023-01-25T13:03:27;97814.97;;;2.37;100.00
6829;BME280;17930;48.592;8.868;2023-01-25T13:06:02;97812.44;;;2.50;100.00
6829;BME280;17930;48.592;8.868;2023-01-25T13:08:38;97802.09;;;2.37;100.00
6829;BME280;17930;48.592;8.868;2023-01-25T13:11:12;97802.16;;;2.50;100.00
6829;BME280;17930;48.592;8.868;2023-01-25T13:13:42;97799.94;;;2.41;100.00
6829;BME280;17930;48.592;8.868;2023-01-25T13:16:35;97791.66;;;2.52;100.00
6829;BME280;17930;48.592;8.868;2023-01-25T13:19:03;97795.00;;;2.39;100.00
6829;BME280;17930;48.592;8.868;2023-01-25T13:21:48;97790.00;;;2.31;100.00
6829;BME280;17930;48.592;8.868;2023-01-25T13:24:21;97789.84;;;2.46;100.00
6829;BME280;17930;48.592;8.868;2023-01-25T13:27:22;97779.94;;;2.43;100.00
6829;BME280;17930;48.592;8.868;2023-01-25T13:29:57;97780.13;;;2.41;100.00
6829;BME280;17930;48.592;8.868;2023-01-25T13:35:40;97774.78;;;2.43;100.00
6829;BME280;17930;48.592;8.868;2023-01-25T13:38:30;97767.69;;;2.51;100.00
6829;BME280;17930;48.592;8.868;2023-01-25T13:41:16;97767.69;;;2.45;100.00
6829;BME280;17930;48.592;8.868;2023-01-25T13:43:54;97763.34;;;2.52;100.00
6829;BME280;17930;48.592;8.868;2023-01-25T13:46:32;97756.22;;;2.53;100.00
6829;BME280;17930;48.592;8.868;2023-01-25T13:49:03;97757.41;;;2.45;100.00
6829;BME280;17930;48.592;8.868;2023-01-25T13:51:34;97748.09;;;2.44;100.00
6829;BME280;17930;48.592;8.868;2023-01-25T13:54:02;97747.09;;;2.45;100.00
6829;BME280;17930;48.592;8.868;2023-01-25T13:56:32;97735.19;;;2.31;100.00
6829;BME280;17930;48.592;8.868;2023-01-25T13:59:00;97736.38;;;2.28;100.00
6829;BME280;17930;48.592;8.868;2023-01-25T14:01:30;97735.19;;;2.37;100.00
6829;BME280;17930;48.592;8.868;2023-01-25T14:03:59;97742.13;;;2.30;100.00
6829;BME280;17930;48.592;8.868;2023-01-25T14:06:36;97734.59;;;2.35;100.00
6829;BME280;17930;48.592;8.868;2023-01-25T14:09:09;97738.00;;;2.42;100.00
6829;BME280;17930;48.592;8.868;2023-01-25T14:11:45;97736.59;;;2.33;100.00
6829;BME280;17930;48.592;8.868;2023-01-25T14:14:18;97735.81;;;2.52;100.00
6829;BME280;17930;48.592;8.868;2023-01-25T14:16:45;97737.19;;;2.35;100.00
6829;BME280;17930;48.592;8.868;2023-01-25T14:19:20;97729.28;;;2.43;100.00
6829;BME280;17930;48.592;8.868;2023-01-25T14:21:47;97733.63;;;2.43;100.00
6829;BME280;17930;48.592;8.868;2023-01-25T14:24:16;97728.06;;;2.26;100.00
6829;BME280;17930;48.592;8.868;2023-01-25T14:26:46;97728.41;;;2.10;100.00
6829;BME280;17930;48.592;8.868;2023-01-25T14:29:17;97733.38;;;2.18;100.00
6829;BME280;17930;48.592;8.868;2023-01-25T14:31:49;97729.03;;;2.12;100.00
6829;BME280;17930;48.592;8.868;2023-01-25T14:34:17;97735.16;;;2.11;100.00
6829;BME280;17930;48.592;8.868;2023-01-25T14:36:48;97735.97;;;2.12;100.00
6829;BME280;17930;48.592;8.868;2023-01-25T14:39:31;97739.88;;;2.02;100.00
6829;BME280;17930;48.592;8.868;2023-01-25T14:42:00;97741.06;;;2.05;100.00
6829;BME280;17930;48.592;8.868;2023-01-25T14:44:28;97741.88;;;2.06;100.00
6829;BME280;17930;48.592;8.868;2023-01-25T14:47:20;97740.66;;;1.96;100.00
6829;BME280;17930;48.592;8.868;2023-01-25T14:49:48;97740.09;;;2.13;100.00
6829;BME280;17930;48.592;8.868;2023-01-25T14:52:16;97732.59;;;2.18;100.00
6829;BME280;17930;48.592;8.868;2023-01-25T14:54:48;97727.44;;;2.11;100.00
6829;BME280;17930;48.592;8.868;2023-01-25T14:57:30;97731.16;;;1.96;100.00
6829;BME280;17930;48.592;8.868;2023-01-25T14:59:58;97720.91;;;2.09;100.00
6829;BME280;17930;48.592;8.868;2023-01-25T15:02:33;97727.25;;;2.06;100.00
6829;BME280;17930;48.592;8.868;2023-01-25T15:05:05;97718.75;;;2.12;100.00
6829;BME280;17930;48.592;8.868;2023-01-25T15:07:40;97722.13;;;2.19;100.00
6829;BME280;17930;48.592;8.868;2023-01-25T15:10:17;97716.94;;;2.13;100.00
6829;BME280;17930;48.592;8.868;2023-01-25T15:12:56;97719.31;;;2.02;100.00
6829;BME280;17930;48.592;8.868;2023-01-25T15:15:25;97711.00;;;2.00;100.00
6829;BME280;17930;48.592;8.868;2023-01-25T15:17:54;97702.50;;;2.05;100.00
6829;BME280;17930;48.592;8.868;2023-01-25T15:20:33;97703.88;;;2.02;100.00
6829;BME280;17930;48.592;8.868;2023-01-25T15:23:07;97696.19;;;2.21;100.00
6829;BME280;17930;48.592;8.868;2023-01-25T15:25:47;97695.59;;;2.12;100.00
6829;BME280;17930;48.592;8.868;2023-01-25T15:28:15;97691.00;;;1.95;100.00
6829;BME280;17930;48.592;8.868;2023-01-25T15:30:42;97687.25;;;1.98;100.00
6829;BME280;17930;48.592;8.868;2023-01-25T15:33:18;97684.88;;;1.90;100.00
6829;BME280;17930;48.592;8.868;2023-01-25T15:35:45;97681.47;;;1.83;100.00
6829;BME280;17930;48.592;8.868;2023-01-25T15:38:13;97677.75;;;1.92;100.00
6829;BME280;17930;48.592;8.868;2023-01-25T15:40:39;97674.94;;;1.80;100.00
6829;BME280;17930;48.592;8.868;2023-01-25T15:43:09;97673.75;;;1.76;100.00
6829;BME280;17930;48.592;8.868;2023-01-25T15:45:38;97673.19;;;1.87;100.00
6829;BME280;17930;48.592;8.868;2023-01-25T15:48:10;97673.38;;;1.86;100.00
6829;BME280;17930;48.592;8.868;2023-01-25T15:50:38;97672.19;;;1.82;100.00
6829;BME280;17930;48.592;8.868;2023-01-25T15:53:04;97662.25;;;1.66;100.00
6829;BME280;17930;48.592;8.868;2023-01-25T15:55:32;97654.00;;;1.77;100.00
6829;BME280;17930;48.592;8.868;2023-01-25T15:58:07;97655.91;;;1.62;100.00
6829;BME280;17930;48.592;8.868;2023-01-25T16:00:36;97645.66;;;1.75;100.00
6829;BME280;17930;48.592;8.868;2023-01-25T16:03:11;97648.44;;;1.73;100.00
6829;BME280;17930;48.592;8.868;2023-01-25T16:05:38;97643.66;;;1.57;100.00
6829;BME280;17930;48.592;8.868;2023-01-25T16:08:05;97638.34;;;1.72;100.00